TimeCDT,TemperatureF,Dew PointF,Humidity,Sea Level PressureIn,VisibilityMPH,Wind Direction,Wind SpeedMPH,Gust SpeedMPH,PrecipitationIn,Events,Conditions,WindDirDegrees,DateUTC
12:41 AM,75.2,73.4,94,29.90,6.0,NE,8.1,-,0.06,Rain,Rain,50,2013-09-20 05:41:00
12:51 AM,75.0,73.9,96,29.88,5.0,ENE,6.9,-,0.08,Rain,Rain,60,2013-09-20 05:51:00
1:51 AM,75.0,73.9,96,29.86,7.0,ENE,6.9,-,0.11,Rain,Light Rain,60,2013-09-20 06:51:00
2:10 AM,75.2,73.4,94,29.88,1.8,East,6.9,-,0.11,Rain,Heavy Rain,80,2013-09-20 07:10:00
2:24 AM,75.2,73.4,94,29.88,3.0,ENE,8.1,-,0.31,Rain,Heavy Rain,70,2013-09-20 07:24:00
2:29 AM,75.2,73.4,94,29.87,2.5,East,6.9,-,0.32,Rain,Heavy Rain,80,2013-09-20 07:29:00
2:32 AM,75.2,73.4,94,29.87,1.8,East,3.5,-,0.37,Rain-Thunderstorm,Heavy Thunderstorms and Rain,90,2013-09-20 07:32:00
2:43 AM,75.2,73.4,94,29.87,3.0,ESE,9.2,-,0.50,Rain-Thunderstorm,Heavy Thunderstorms and Rain,120,2013-09-20 07:43:00
2:48 AM,75.2,73.4,94,29.87,4.0,ESE,8.1,-,0.51,Rain,Heavy Rain,110,2013-09-20 07:48:00
2:51 AM,75.0,73.9,96,29.85,4.0,East,8.1,-,0.52,Rain-Thunderstorm,Heavy Rain,100,2013-09-20 07:51:00
3:19 AM,75.2,73.4,94,29.86,4.0,ESE,6.9,-,0.12,Rain,Rain,110,2013-09-20 08:19:00
3:29 AM,75.2,73.4,94,29.86,6.0,ESE,5.8,-,0.14,Rain,Rain,120,2013-09-20 08:29:00
3:35 AM,75.2,73.4,94,29.86,6.0,SE,4.6,-,0.15,Rain,Rain,130,2013-09-20 08:35:00
3:42 AM,75.2,75.2,100,29.86,6.0,ESE,4.6,-,0.16,Rain,Rain,120,2013-09-20 08:42:00
3:51 AM,75.9,75.0,97,29.83,6.0,SE,4.6,-,0.18,Rain,Light Rain,130,2013-09-20 08:51:00
4:02 AM,75.2,75.2,100,29.85,6.0,ESE,3.5,-,0.02,Rain,Light Rain,120,2013-09-20 09:02:00
4:51 AM,75.9,75.0,97,29.82,7.0,SE,3.5,-,0.09,Rain,Light Rain,140,2013-09-20 09:51:00
5:00 AM,75.2,75.2,100,29.84,7.0,SSE,4.6,-,0.01,Rain,Light Rain,150,2013-09-20 10:00:00
5:35 AM,77.0,75.2,94,29.84,9.0,South,3.5,-,0.02,Rain,Light Rain,190,2013-09-20 10:35:00
5:51 AM,77.0,75.0,94,29.82,8.0,WSW,3.5,-,0.04,Rain,Light Rain,240,2013-09-20 10:51:00
6:51 AM,75.0,73.0,94,29.81,10.0,NNW,6.9,-,0.00,,Overcast,330,2013-09-20 11:51:00
7:51 AM,73.9,73.0,97,29.81,6.0,NNW,9.2,-,0.01,Rain,Light Rain,330,2013-09-20 12:51:00
8:48 AM,73.4,71.6,94,29.84,10.0,NNW,3.5,-,0.01,,Overcast,340,2013-09-20 13:48:00
8:51 AM,73.9,73.0,97,29.82,10.0,North,3.5,-,0.01,,Overcast,350,2013-09-20 13:51:00
9:51 AM,73.9,72.0,93,29.84,10.0,North,8.1,-,0.00,Rain,Light Rain,350,2013-09-20 14:51:00
10:51 AM,75.9,73.0,91,29.84,6.0,North,10.4,-,0.03,Rain,Light Rain,10,2013-09-20 15:51:00
10:58 AM,75.2,73.4,94,29.86,6.0,North,9.2,-,0.01,Rain,Light Rain,360,2013-09-20 15:58:00
11:51 AM,75.0,73.0,94,29.83,10.0,North,10.4,-,0.09,Rain,Light Rain,10,2013-09-20 16:51:00
12:23 PM,75.2,73.4,94,29.86,6.0,NNE,9.2,-,0.04,Rain,Rain,20,2013-09-20 17:23:00
12:51 PM,75.0,73.0,94,29.83,10.0,North,12.7,-,0.06,Rain,Light Rain,360,2013-09-20 17:51:00
1:30 PM,75.2,73.4,94,29.84,2.0,NNE,6.9,-,0.10,Rain,Heavy Rain,30,2013-09-20 18:30:00
1:37 PM,73.4,73.4,100,29.84,1.2,NNE,13.8,18.4,0.17,Rain,Heavy Rain,30,2013-09-20 18:37:00
1:47 PM,73.4,71.6,94,29.83,1.2,NNE,18.4,27.6,0.24,Rain,Rain,30,2013-09-20 18:47:00
1:49 PM,73.4,71.6,94,29.83,3.0,NNE,15.0,27.6,0.24,Rain,Rain,20,2013-09-20 18:49:00
1:51 PM,73.0,71.1,93,29.81,5.0,NNE,16.1,27.6,0.24,Rain,Rain,30,2013-09-20 18:51:00
2:03 PM,71.6,69.8,94,29.81,3.0,NNE,20.7,26.5,0.03,Rain,Rain,20,2013-09-20 19:03:00
2:24 PM,71.6,69.8,94,29.81,9.0,NNE,19.6,26.5,0.05,Rain,Light Rain,30,2013-09-20 19:24:00
2:51 PM,73.0,70.0,90,29.81,10.0,NNE,13.8,-,0.06,Rain,Light Rain,30,2013-09-20 19:51:00
3:42 PM,73.4,71.6,94,29.85,6.0,NNE,12.7,-,0.08,Rain,Light Rain,30,2013-09-20 20:42:00
3:51 PM,73.0,71.1,93,29.82,3.0,NE,15.0,-,0.11,Rain,Heavy Rain,40,2013-09-20 20:51:00
3:58 PM,73.4,71.6,94,29.84,2.5,NNE,13.8,-,0.03,Rain,Heavy Rain,30,2013-09-20 20:58:00
4:21 PM,73.4,71.6,94,29.85,2.5,North,10.4,-,0.08,Rain,Rain,10,2013-09-20 21:21:00
4:34 PM,73.4,71.6,94,29.85,2.5,North,11.5,-,0.09,Rain,Rain,360,2013-09-20 21:34:00
4:51 PM,73.0,71.1,93,29.85,9.0,North,12.7,-,0.10,Rain,Light Rain,10,2013-09-20 21:51:00
5:51 PM,73.0,71.1,93,29.84,10.0,North,9.2,-,0.06,Rain,Light Rain,10,2013-09-20 22:51:00
6:51 PM,72.0,70.0,93,29.84,9.0,NE,9.2,-,0.01,Rain,Light Rain,40,2013-09-20 23:51:00
7:51 PM,72.0,69.1,91,29.84,10.0,NNE,9.2,-,0.01,Rain,Light Rain,30,2013-09-21 00:51:00
8:51 PM,72.0,70.0,93,29.82,10.0,NE,9.2,-,0.01,Rain,Light Rain,40,2013-09-21 01:51:00
9:51 PM,72.0,69.1,91,29.86,10.0,North,8.1,-,0.00,,Mostly Cloudy,350,2013-09-21 02:51:00
10:51 PM,71.1,69.1,93,29.89,10.0,North,6.9,-,N/A,,Overcast,360,2013-09-21 03:51:00
11:31 PM,71.6,69.8,94,29.91,9.0,NNW,8.1,-,0.00,Rain,Light Rain,340,2013-09-21 04:31:00
11:51 PM,71.1,69.1,93,29.89,6.0,North,9.2,-,0.01,Rain,Light Rain,360,2013-09-21 04:51:00